createdAt,value
2022-11-12T00:00:59.360Z,18.60
2022-11-12T00:04:02.036Z,20.87
2022-11-12T00:07:04.779Z,20.73
2022-11-12T00:10:08.225Z,25.17
2022-11-12T00:13:11.893Z,26.47
2022-11-12T00:16:14.100Z,22.80
2022-11-12T00:19:16.376Z,21.90
2022-11-12T00:22:18.945Z,24.17
2022-11-12T00:25:21.755Z,26.73
2022-11-12T00:28:26.036Z,23.93
2022-11-12T00:31:28.506Z,21.10
2022-11-12T00:34:31.462Z,21.77
2022-11-12T00:37:33.769Z,18.70
2022-11-12T00:40:36.441Z,21.37
2022-11-12T00:43:40.392Z,19.50
2022-11-12T00:46:43.142Z,21.70
2022-11-12T00:49:45.467Z,19.37
2022-11-12T00:52:47.998Z,24.27
2022-11-12T00:55:50.069Z,19.83
2022-11-12T00:58:53.977Z,23.07
2022-11-12T01:01:56.149Z,23.33
2022-11-12T01:04:58.702Z,24.10
2022-11-12T01:08:00.972Z,20.83
2022-11-12T01:11:08.629Z,25.80
2022-11-12T01:14:12.410Z,15.93
2022-11-12T01:17:14.696Z,22.70
2022-11-12T01:20:17.718Z,23.37
2022-11-12T01:23:19.976Z,25.10
2022-11-12T01:26:24.116Z,23.33
2022-11-12T01:29:28.012Z,23.10
2022-11-12T01:32:30.487Z,21.77
2022-11-12T01:35:32.907Z,24.83
2022-11-12T01:38:36.369Z,20.20
2022-11-12T01:41:40.619Z,20.77
2022-11-12T01:44:46.533Z,21.90
2022-11-12T01:47:52.408Z,19.57
2022-11-12T01:50:55.406Z,21.90
2022-11-12T01:54:00.157Z,23.70
2022-11-12T01:57:03.457Z,18.97
2022-11-12T02:00:11.282Z,21.47
2022-11-12T02:03:17.407Z,21.87
2022-11-12T02:06:20.681Z,22.17
2022-11-12T02:09:23.263Z,20.80
2022-11-12T02:12:43.045Z,23.33
2022-11-12T02:16:08.651Z,25.47
2022-11-12T02:19:13.198Z,25.13
2022-11-12T02:22:16.799Z,20.90
2022-11-12T02:25:22.586Z,22.57
2022-11-12T02:28:25.398Z,28.53
2022-11-12T02:31:27.926Z,24.97
2022-11-12T02:34:30.321Z,24.87
2022-11-12T02:37:33.896Z,24.53
2022-11-12T02:40:36.772Z,23.80
2022-11-12T02:43:38.894Z,26.33
2022-11-12T02:46:41.029Z,28.37
2022-11-12T02:49:44.703Z,25.57
2022-11-12T02:52:48.437Z,28.93
2022-11-12T02:55:50.979Z,24.33
2022-11-12T02:58:53.249Z,27.40
2022-11-12T03:01:55.937Z,26.43
2022-11-12T03:04:58.402Z,20.33
2022-11-12T03:08:04.687Z,21.83
2022-11-12T03:11:12.602Z,29.50
2022-11-12T03:14:14.951Z,29.20
2022-11-12T03:17:17.602Z,29.20
2022-11-12T03:20:20.412Z,25.87
2022-11-12T03:23:24.501Z,23.43
2022-11-12T03:26:29.540Z,21.10
2022-11-12T03:29:35.553Z,19.93
2022-11-12T03:32:37.788Z,19.40
2022-11-12T03:35:40.425Z,24.63
2022-11-12T03:38:43.901Z,18.17
2022-11-12T03:41:46.138Z,17.77
2022-11-12T03:44:48.266Z,23.20
2022-11-12T03:47:52.121Z,21.73
2022-11-12T03:50:58.159Z,28.37
2022-11-12T03:54:02.197Z,27.13
2022-11-12T03:57:04.500Z,28.00
2022-11-12T04:00:08.271Z,27.53
2022-11-12T04:03:10.575Z,23.33
2022-11-12T04:06:30.669Z,21.70
2022-11-12T04:09:34.402Z,17.53
2022-11-12T04:12:54.053Z,19.23
2022-11-12T04:16:15.307Z,18.30
2022-11-12T04:19:35.246Z,14.57
2022-11-12T04:22:37.612Z,18.73
2022-11-12T04:26:14.111Z,20.60
2022-11-12T04:29:37.460Z,24.27
2022-11-12T04:32:41.412Z,25.87
2022-11-12T04:35:43.814Z,26.70
2022-11-12T04:38:46.332Z,29.47
2022-11-12T04:42:06.856Z,26.93
2022-11-12T04:45:10.780Z,21.60
2022-11-12T04:48:13.285Z,22.03
2022-11-12T04:51:29.634Z,16.87
2022-11-12T04:54:32.192Z,22.93
2022-11-12T04:57:36.063Z,23.90
2022-11-12T05:00:38.348Z,27.60
2022-11-12T05:03:40.724Z,22.90
2022-11-12T05:06:55.535Z,25.53
2022-11-12T05:09:57.754Z,25.87
2022-11-12T05:13:01.458Z,22.27
2022-11-12T05:16:03.425Z,26.30
2022-11-12T05:19:05.995Z,27.00
2022-11-12T05:22:13.915Z,23.67
2022-11-12T05:25:24.216Z,27.77
2022-11-12T05:28:28.106Z,32.77
2022-11-12T05:31:30.787Z,31.47
2022-11-12T05:34:33.348Z,32.20
2022-11-12T05:37:35.425Z,29.17
2022-11-12T05:40:37.393Z,29.60
2022-11-12T05:43:41.356Z,28.73
2022-11-12T05:46:43.956Z,23.97
2022-11-12T05:49:46.075Z,32.17
2022-11-12T05:52:48.444Z,26.27
2022-11-12T05:55:50.568Z,24.93
2022-11-12T05:58:54.448Z,24.00
2022-11-12T06:01:56.968Z,22.03
2022-11-12T06:04:59.023Z,20.43
2022-11-12T06:08:02.062Z,21.60
2022-11-12T06:11:04.308Z,20.17
2022-11-12T06:14:07.976Z,22.33
2022-11-12T06:17:10.669Z,23.43
2022-11-12T06:20:13.948Z,17.57
2022-11-12T06:23:16.226Z,23.63
2022-11-12T06:26:18.876Z,23.03
2022-11-12T06:29:22.819Z,21.93
2022-11-12T06:32:25.133Z,23.83
2022-11-12T06:35:27.818Z,23.30
2022-11-12T06:38:31.461Z,24.80
2022-11-12T06:41:34.007Z,24.03
2022-11-12T06:44:37.341Z,40.47
2022-11-12T06:47:39.762Z,19.43
2022-11-12T06:50:42.003Z,23.77
2022-11-12T06:53:44.556Z,23.17
2022-11-12T06:56:47.189Z,23.40
2022-11-12T06:59:51.250Z,25.07
2022-11-12T07:02:53.892Z,29.00
2022-11-12T07:05:56.334Z,31.03
2022-11-12T07:08:58.882Z,31.37
2022-11-12T07:12:01.185Z,25.27
2022-11-12T07:15:05.288Z,34.23
2022-11-12T07:18:07.855Z,30.23
2022-11-12T07:21:13.123Z,36.70
2022-11-12T07:24:15.454Z,38.47
2022-11-12T07:27:17.585Z,28.37
2022-11-12T07:30:21.226Z,31.23
2022-11-12T07:33:23.718Z,30.83
2022-11-12T07:36:26.025Z,27.40
2022-11-12T07:39:28.236Z,22.70
2022-11-12T07:42:30.382Z,26.97
2022-11-12T07:45:34.381Z,27.37
2022-11-12T07:48:36.506Z,28.80
2022-11-12T07:51:38.519Z,27.97
2022-11-12T07:54:40.717Z,31.77
2022-11-12T07:57:43.265Z,23.57
2022-11-12T08:00:47.347Z,26.53
2022-11-12T08:03:49.284Z,18.47
2022-11-12T08:06:51.738Z,18.33
2022-11-12T08:09:54.604Z,16.83
2022-11-12T08:12:57.810Z,29.33
2022-11-12T08:16:02.166Z,22.37
2022-11-12T08:19:04.465Z,21.17
2022-11-12T08:22:06.627Z,24.67
2022-11-12T08:25:09.886Z,24.50
2022-11-12T08:28:12.035Z,17.03
2022-11-12T08:31:17.938Z,16.40
2022-11-12T08:34:22.819Z,22.40
2022-11-12T08:37:25.551Z,14.33
2022-11-12T08:40:28.653Z,12.43
2022-11-12T08:43:31.073Z,13.53
2022-11-12T08:46:34.775Z,14.70
2022-11-12T08:49:37.369Z,14.07
2022-11-12T08:52:39.688Z,18.23
2022-11-12T08:55:42.213Z,22.67
2022-11-12T08:58:44.503Z,18.90
2022-11-12T09:01:48.569Z,19.83
2022-11-12T09:04:51.101Z,21.53
2022-11-12T09:07:59.038Z,16.00
2022-11-12T09:11:01.418Z,19.03
2022-11-12T09:14:04.197Z,16.83
2022-11-12T09:17:08.467Z,14.53
2022-11-12T09:20:11.328Z,17.83
2022-11-12T09:23:15.401Z,17.47
2022-11-12T09:26:17.821Z,14.43
2022-11-12T09:29:20.414Z,15.53
2022-11-12T09:32:24.102Z,14.03
2022-11-12T09:35:26.677Z,16.67
2022-11-12T09:38:29.944Z,14.93
2022-11-12T09:41:36.128Z,14.67
2022-11-12T09:44:41.161Z,13.60
2022-11-12T09:47:48.311Z,18.47
2022-11-12T09:50:59.724Z,13.93
2022-11-12T09:54:07.889Z,13.73
2022-11-12T09:57:12.840Z,13.90
2022-11-12T10:00:19.633Z,17.53
2022-11-12T10:03:34.775Z,17.10
2022-11-12T10:06:46.249Z,15.43
2022-11-12T10:10:00.698Z,11.43
2022-11-12T10:13:16.688Z,19.50
2022-11-12T10:16:44.623Z,16.13
2022-11-12T10:19:57.902Z,14.90
2022-11-12T10:23:11.360Z,19.13
2022-11-12T10:26:16.821Z,12.17
2022-11-12T10:29:32.044Z,11.47
2022-11-12T10:32:38.927Z,16.03
2022-11-12T10:35:42.824Z,14.73
2022-11-12T10:38:46.585Z,13.50
2022-11-12T10:42:03.672Z,16.10
2022-11-12T10:45:22.220Z,15.60
2022-11-12T10:48:29.142Z,17.47
2022-11-12T10:51:35.739Z,12.33
2022-11-12T10:54:39.349Z,16.47
2022-11-12T10:57:41.974Z,16.70
2022-11-12T11:00:58.959Z,16.73
2022-11-12T11:04:01.396Z,14.60
2022-11-12T11:07:07.584Z,15.50
2022-11-12T11:10:25.797Z,20.77
2022-11-12T11:13:29.281Z,18.87
2022-11-12T11:16:32.179Z,17.67
2022-11-12T11:19:39.029Z,14.83
2022-11-12T11:22:47.206Z,16.93
2022-11-12T11:25:54.828Z,14.70
2022-11-12T11:29:03.962Z,17.97
2022-11-12T11:32:17.801Z,17.10
2022-11-12T11:35:28.775Z,17.33
2022-11-12T11:38:42.570Z,21.07
2022-11-12T11:42:04.495Z,20.60
2022-11-12T11:45:18.606Z,16.10
2022-11-12T11:48:36.397Z,16.50
2022-11-12T11:51:52.286Z,18.13
2022-11-12T11:55:10.103Z,18.27
2022-11-12T11:58:34.079Z,17.97
2022-11-12T12:01:56.052Z,17.87
2022-11-12T12:05:09.063Z,19.87
2022-11-12T12:08:17.494Z,22.37
2022-11-12T12:11:25.047Z,20.77
2022-11-12T12:14:42.433Z,22.20
2022-11-12T12:17:53.821Z,19.00
2022-11-12T12:21:03.727Z,20.33
2022-11-12T12:24:14.053Z,21.70
2022-11-12T12:27:21.434Z,19.20
2022-11-12T12:30:25.914Z,22.00
2022-11-12T12:33:33.423Z,25.87
2022-11-12T12:36:39.567Z,23.33
2022-11-12T12:39:51.125Z,23.20
2022-11-12T12:43:01.061Z,25.20
2022-11-12T12:46:05.316Z,23.10
2022-11-12T12:49:12.014Z,24.43
2022-11-12T12:52:15.397Z,28.23
2022-11-12T12:55:40.473Z,24.77
2022-11-12T12:58:46.887Z,23.27
2022-11-12T13:01:57.718Z,23.60
2022-11-12T13:05:00.150Z,22.70
2022-11-12T13:08:07.245Z,21.10
2022-11-12T13:11:10.572Z,22.83
2022-11-12T13:14:52.437Z,22.93
2022-11-12T13:17:56.058Z,22.03
2022-11-12T13:21:14.840Z,21.03
2022-11-12T13:24:17.732Z,21.87
2022-11-12T13:28:11.200Z,21.10
2022-11-12T13:31:28.434Z,20.50
2022-11-12T13:34:35.065Z,23.97
2022-11-12T13:37:44.669Z,21.87
2022-11-12T13:40:49.478Z,20.87
2022-11-12T13:43:52.935Z,27.37
2022-11-12T13:46:56.254Z,23.60
2022-11-12T13:50:02.865Z,23.63
2022-11-12T13:53:09.196Z,29.30
2022-11-12T13:56:11.803Z,26.97
2022-11-12T13:59:16.795Z,25.60
2022-11-12T14:02:23.430Z,29.93
2022-11-12T14:05:29.649Z,29.20
2022-11-12T14:08:57.010Z,27.70
2022-11-12T14:12:16.500Z,28.80
2022-11-12T14:15:30.745Z,24.63
2022-11-12T14:18:43.318Z,25.27
2022-11-12T14:21:59.891Z,32.27
2022-11-12T14:25:03.596Z,24.63
2022-11-12T14:28:06.437Z,19.60
2022-11-12T14:31:14.358Z,20.80
2022-11-12T14:34:23.954Z,17.17
2022-11-12T14:37:42.969Z,23.63
2022-11-12T14:40:50.147Z,37.07
2022-11-12T14:44:11.426Z,27.80
2022-11-12T14:47:19.372Z,23.77
2022-11-12T14:50:25.239Z,32.87
2022-11-12T14:53:34.484Z,30.40
2022-11-12T14:56:41.800Z,42.17
2022-11-12T14:59:44.018Z,41.37
2022-11-12T15:02:58.803Z,29.27
2022-11-12T15:06:12.550Z,35.03
2022-11-12T15:09:21.805Z,27.33
2022-11-12T15:12:26.422Z,22.07
2022-11-12T15:15:28.530Z,23.60
2022-11-12T15:18:32.322Z,23.53
2022-11-12T15:21:35.068Z,27.10
2022-11-12T15:24:39.277Z,23.07
2022-11-12T15:27:44.130Z,30.60
2022-11-12T15:31:01.685Z,29.00
2022-11-12T15:34:26.476Z,29.70
2022-11-12T15:37:31.681Z,21.30
2022-11-12T15:40:44.301Z,24.47
2022-11-12T15:43:47.003Z,23.10
2022-11-12T15:46:49.468Z,29.27
2022-11-12T15:49:53.494Z,19.63
2022-11-12T15:52:56.062Z,24.93
2022-11-12T15:55:59.668Z,24.90
2022-11-12T15:59:01.984Z,27.63
2022-11-12T16:02:04.879Z,25.73
2022-11-12T16:05:13.162Z,28.00
2022-11-12T16:08:16.110Z,28.90
2022-11-12T16:11:37.894Z,24.87
2022-11-12T16:14:40.771Z,27.37
2022-11-12T16:17:43.430Z,29.23
2022-11-12T16:20:47.228Z,25.80
2022-11-12T16:23:49.319Z,30.60
2022-11-12T16:26:53.575Z,28.07
2022-11-12T16:29:56.169Z,25.73
2022-11-12T16:32:59.419Z,28.30
2022-11-12T16:36:01.998Z,24.33
2022-11-12T16:39:04.914Z,25.07
2022-11-12T16:42:10.830Z,31.70
2022-11-12T16:45:14.278Z,27.30
2022-11-12T16:48:21.879Z,28.60
2022-11-12T16:51:24.705Z,24.60
2022-11-12T16:54:27.135Z,25.00
2022-11-12T16:57:31.096Z,31.03
2022-11-12T17:00:33.500Z,27.17
2022-11-12T17:03:35.797Z,35.47
2022-11-12T17:06:40.004Z,34.40
2022-11-12T17:09:42.135Z,35.47
2022-11-12T17:12:49.953Z,31.30
2022-11-12T17:15:58.790Z,23.57
2022-11-12T17:19:02.557Z,32.10
2022-11-12T17:22:04.988Z,36.10
2022-11-12T17:25:08.260Z,30.07
2022-11-12T17:28:11.958Z,29.07
2022-11-12T17:31:16.384Z,32.37
2022-11-12T17:34:18.761Z,37.17
2022-11-12T17:37:20.756Z,35.57
2022-11-12T17:40:23.197Z,28.17
2022-11-12T17:43:27.659Z,33.27
2022-11-12T17:46:30.247Z,27.80
2022-11-12T17:49:32.346Z,25.80
2022-11-12T17:52:34.482Z,26.03
2022-11-12T17:55:36.516Z,27.13
2022-11-12T17:58:40.631Z,30.70
2022-11-12T18:01:42.819Z,23.30
2022-11-12T18:04:45.336Z,22.23
2022-11-12T18:07:47.706Z,28.80
2022-11-12T18:10:49.836Z,22.87
2022-11-12T18:13:53.694Z,22.87
2022-11-12T18:16:56.973Z,21.10
2022-11-12T18:19:58.858Z,22.87
2022-11-12T18:23:01.139Z,22.37
2022-11-12T18:26:03.723Z,21.80
2022-11-12T18:29:07.672Z,22.60
2022-11-12T18:32:09.769Z,21.47
2022-11-12T18:35:12.204Z,28.60
2022-11-12T18:38:14.449Z,23.20
2022-11-12T18:41:17.998Z,22.33
2022-11-12T18:44:25.844Z,36.90
2022-11-12T18:47:30.577Z,21.13
2022-11-12T18:50:32.544Z,27.87
2022-11-12T18:53:35.430Z,20.30
2022-11-12T18:56:40.053Z,25.70
2022-11-12T18:59:43.981Z,22.73
2022-11-12T19:02:47.939Z,23.20
2022-11-12T19:05:50.249Z,25.07
2022-11-12T19:08:52.766Z,17.53
2022-11-12T19:11:55.515Z,23.70
2022-11-12T19:14:59.278Z,22.37
2022-11-12T19:18:01.845Z,22.53
2022-11-12T19:21:05.960Z,22.57
2022-11-12T19:24:09.186Z,21.70
2022-11-12T19:27:11.487Z,31.13
2022-11-12T19:30:15.558Z,24.93
2022-11-12T19:33:18.224Z,21.10
2022-11-12T19:36:22.678Z,22.03
2022-11-12T19:39:25.010Z,27.93
2022-11-12T19:42:27.576Z,20.73
2022-11-12T19:45:31.659Z,24.93
2022-11-12T19:48:34.195Z,22.37
2022-11-12T19:51:36.495Z,22.80
2022-11-12T19:54:38.704Z,25.07
2022-11-12T19:57:41.309Z,23.67
2022-11-12T20:00:45.363Z,22.37
2022-11-12T20:03:47.579Z,20.30
2022-11-12T20:06:49.801Z,22.63
2022-11-12T20:09:56.530Z,23.17
2022-11-12T20:13:02.099Z,22.07
2022-11-12T20:16:08.813Z,25.37
2022-11-12T20:19:11.220Z,27.03
2022-11-12T20:22:13.949Z,22.00
2022-11-12T20:25:16.415Z,25.50
2022-11-12T20:28:19.479Z,21.63
2022-11-12T20:31:23.494Z,21.97
2022-11-12T20:34:26.746Z,27.67
2022-11-12T20:37:30.859Z,32.87
2022-11-12T20:40:34.273Z,27.97
2022-11-12T20:43:36.951Z,24.20
2022-11-12T20:46:41.126Z,24.23
2022-11-12T20:49:43.532Z,29.47
2022-11-12T20:52:47.485Z,23.67
2022-11-12T20:55:49.685Z,29.73
2022-11-12T20:58:51.989Z,28.43
2022-11-12T21:01:57.801Z,34.10
2022-11-12T21:05:00.376Z,26.33
2022-11-12T21:08:03.163Z,19.73
2022-11-12T21:11:07.614Z,20.73
2022-11-12T21:14:12.193Z,18.93
2022-11-12T21:17:16.031Z,21.43
2022-11-12T21:20:18.604Z,19.83
2022-11-12T21:23:21.643Z,18.80
2022-11-12T21:26:24.406Z,21.33
2022-11-12T21:29:26.910Z,21.80
2022-11-12T21:32:30.977Z,22.33
2022-11-12T21:35:33.390Z,22.33
2022-11-12T21:38:35.677Z,22.93
2022-11-12T21:41:38.225Z,22.30
2022-11-12T21:44:40.813Z,25.60
2022-11-12T21:47:44.720Z,22.67
2022-11-12T21:50:47.298Z,23.60
2022-11-12T21:53:54.137Z,23.67
2022-11-12T21:56:56.786Z,24.53
2022-11-12T22:00:19.441Z,24.37
2022-11-12T22:03:23.340Z,30.47
2022-11-12T22:06:28.062Z,27.63
2022-11-12T22:09:30.659Z,25.63
2022-11-12T22:12:32.978Z,25.17
2022-11-12T22:15:35.373Z,24.57
2022-11-12T22:18:39.568Z,23.87
2022-11-12T22:21:42.203Z,27.57
2022-11-12T22:24:44.434Z,25.67
2022-11-12T22:27:47.844Z,26.07
2022-11-12T22:30:50.346Z,23.70
2022-11-12T22:33:54.420Z,23.20
2022-11-12T22:36:57.009Z,26.33
2022-11-12T22:39:59.260Z,30.03
2022-11-12T22:43:01.666Z,27.27
2022-11-12T22:46:06.276Z,26.53
2022-11-12T22:49:10.064Z,26.50
2022-11-12T22:52:12.313Z,24.63
2022-11-12T22:55:14.400Z,27.20
2022-11-12T22:58:16.648Z,28.67
2022-11-12T23:01:21.517Z,32.37
2022-11-12T23:04:24.957Z,31.73
2022-11-12T23:07:27.217Z,26.63
2022-11-12T23:10:29.597Z,25.03
2022-11-12T23:13:32.277Z,26.87
2022-11-12T23:16:35.408Z,28.73
2022-11-12T23:19:39.226Z,23.13
2022-11-12T23:22:41.973Z,18.83
2022-11-12T23:25:45.269Z,21.77
2022-11-12T23:28:47.848Z,25.90
2022-11-12T23:31:50.021Z,25.70
2022-11-12T23:34:54.194Z,24.70
2022-11-12T23:37:56.747Z,24.07
2022-11-12T23:40:59.021Z,22.73
2022-11-12T23:44:01.291Z,23.20
2022-11-12T23:47:03.489Z,23.03
2022-11-12T23:50:08.557Z,24.60
2022-11-12T23:53:11.067Z,25.23
2022-11-12T23:56:15.933Z,26.77
2022-11-12T23:59:18.727Z,23.60
